sensor_id;sensor_type;location;lat;lon;timestamp;P1;durP1;ratioP1;P2;durP2;ratioP2
20443;SDS011;10381;53.730;10.010;2022-08-19T00:00:40;33.17;;;17.35;;
20443;SDS011;10381;53.730;10.010;2022-08-19T00:04:40;38.38;;;18.23;;
20443;SDS011;10381;53.730;10.010;2022-08-19T00:08:40;33.67;;;18.77;;
20443;SDS011;10381;53.730;10.010;2022-08-19T00:12:41;29.33;;;17.80;;
20443;SDS011;10381;53.730;10.010;2022-08-19T00:16:43;35.20;;;19.02;;
20443;SDS011;10381;53.730;10.010;2022-08-19T00:20:44;36.40;;;18.15;;
20443;SDS011;10381;53.730;10.010;2022-08-19T00:24:45;40.38;;;18.77;;
20443;SDS011;10381;53.730;10.010;2022-08-19T00:28:45;47.33;;;19.48;;
20443;SDS011;10381;53.730;10.010;2022-08-19T00:32:47;40.92;;;19.90;;
20443;SDS011;10381;53.730;10.010;2022-08-19T00:36:47;40.63;;;19.40;;
20443;SDS011;10381;53.730;10.010;2022-08-19T00:40:48;41.30;;;20.25;;
20443;SDS011;10381;53.730;10.010;2022-08-19T00:44:48;45.57;;;20.37;;
20443;SDS011;10381;53.730;10.010;2022-08-19T00:48:50;38.08;;;19.40;;
20443;SDS011;10381;53.730;10.010;2022-08-19T00:52:50;41.00;;;20.90;;
20443;SDS011;10381;53.730;10.010;2022-08-19T00:56:51;39.75;;;19.52;;
20443;SDS011;10381;53.730;10.010;2022-08-19T01:00:52;44.85;;;20.15;;
20443;SDS011;10381;53.730;10.010;2022-08-19T01:04:53;44.80;;;20.83;;
20443;SDS011;10381;53.730;10.010;2022-08-19T01:08:54;39.30;;;18.75;;
20443;SDS011;10381;53.730;10.010;2022-08-19T01:12:55;52.45;;;21.15;;
20443;SDS011;10381;53.730;10.010;2022-08-19T01:16:55;39.85;;;19.05;;
20443;SDS011;10381;53.730;10.010;2022-08-19T01:20:58;40.38;;;19.58;;
20443;SDS011;10381;53.730;10.010;2022-08-19T01:25:02;51.08;;;20.98;;
20443;SDS011;10381;53.730;10.010;2022-08-19T01:29:04;47.63;;;21.33;;
20443;SDS011;10381;53.730;10.010;2022-08-19T01:33:07;47.20;;;20.60;;
20443;SDS011;10381;53.730;10.010;2022-08-19T01:37:08;46.60;;;21.27;;
20443;SDS011;10381;53.730;10.010;2022-08-19T01:41:11;55.35;;;21.98;;
20443;SDS011;10381;53.730;10.010;2022-08-19T01:45:12;59.53;;;21.35;;
20443;SDS011;10381;53.730;10.010;2022-08-19T01:49:12;47.03;;;20.92;;
20443;SDS011;10381;53.730;10.010;2022-08-19T01:53:13;52.40;;;20.40;;
20443;SDS011;10381;53.730;10.010;2022-08-19T01:57:13;52.92;;;20.55;;
20443;SDS011;10381;53.730;10.010;2022-08-19T02:01:14;51.20;;;20.52;;
20443;SDS011;10381;53.730;10.010;2022-08-19T02:05:15;50.60;;;20.65;;
20443;SDS011;10381;53.730;10.010;2022-08-19T02:09:17;47.88;;;19.48;;
20443;SDS011;10381;53.730;10.010;2022-08-19T02:13:18;58.50;;;21.13;;
20443;SDS011;10381;53.730;10.010;2022-08-19T02:17:18;61.95;;;19.67;;
20443;SDS011;10381;53.730;10.010;2022-08-19T02:21:21;55.28;;;19.38;;
20443;SDS011;10381;53.730;10.010;2022-08-19T02:25:22;51.42;;;19.77;;
20443;SDS011;10381;53.730;10.010;2022-08-19T02:29:23;57.00;;;20.90;;
20443;SDS011;10381;53.730;10.010;2022-08-19T02:33:23;55.50;;;21.07;;
20443;SDS011;10381;53.730;10.010;2022-08-19T02:37:23;60.57;;;19.47;;
20443;SDS011;10381;53.730;10.010;2022-08-19T02:41:42;61.17;;;20.50;;
20443;SDS011;10381;53.730;10.010;2022-08-19T02:45:43;47.00;;;19.77;;
20443;SDS011;10381;53.730;10.010;2022-08-19T02:49:43;43.63;;;20.07;;
20443;SDS011;10381;53.730;10.010;2022-08-19T02:53:44;52.80;;;21.73;;
20443;SDS011;10381;53.730;10.010;2022-08-19T02:57:45;50.28;;;19.95;;
20443;SDS011;10381;53.730;10.010;2022-08-19T03:01:45;58.95;;;19.20;;
20443;SDS011;10381;53.730;10.010;2022-08-19T03:05:46;55.50;;;19.48;;
20443;SDS011;10381;53.730;10.010;2022-08-19T03:09:46;38.20;;;18.38;;
20443;SDS011;10381;53.730;10.010;2022-08-19T03:13:48;46.13;;;17.85;;
20443;SDS011;10381;53.730;10.010;2022-08-19T03:17:48;42.85;;;16.88;;
20443;SDS011;10381;53.730;10.010;2022-08-19T03:21:49;47.87;;;18.77;;
20443;SDS011;10381;53.730;10.010;2022-08-19T03:25:50;48.40;;;18.88;;
20443;SDS011;10381;53.730;10.010;2022-08-19T03:29:52;38.83;;;18.15;;
20443;SDS011;10381;53.730;10.010;2022-08-19T03:33:53;55.80;;;18.77;;
20443;SDS011;10381;53.730;10.010;2022-08-19T03:37:53;42.90;;;18.83;;
20443;SDS011;10381;53.730;10.010;2022-08-19T03:41:54;42.03;;;16.23;;
20443;SDS011;10381;53.730;10.010;2022-08-19T03:46:01;53.63;;;19.60;;
20443;SDS011;10381;53.730;10.010;2022-08-19T03:50:06;52.70;;;18.77;;
20443;SDS011;10381;53.730;10.010;2022-08-19T03:54:10;54.60;;;19.08;;
20443;SDS011;10381;53.730;10.010;2022-08-19T03:58:12;41.97;;;19.23;;
20443;SDS011;10381;53.730;10.010;2022-08-19T04:02:13;52.75;;;19.05;;
20443;SDS011;10381;53.730;10.010;2022-08-19T04:06:15;49.72;;;20.20;;
20443;SDS011;10381;53.730;10.010;2022-08-19T04:10:17;48.67;;;19.75;;
20443;SDS011;10381;53.730;10.010;2022-08-19T04:14:19;51.00;;;19.27;;
20443;SDS011;10381;53.730;10.010;2022-08-19T04:18:23;54.67;;;19.95;;
20443;SDS011;10381;53.730;10.010;2022-08-19T04:22:24;50.20;;;19.57;;
20443;SDS011;10381;53.730;10.010;2022-08-19T04:26:28;52.53;;;19.13;;
20443;SDS011;10381;53.730;10.010;2022-08-19T04:30:36;47.50;;;19.98;;
20443;SDS011;10381;53.730;10.010;2022-08-19T04:34:44;51.05;;;20.83;;
20443;SDS011;10381;53.730;10.010;2022-08-19T04:38:45;38.60;;;18.73;;
20443;SDS011;10381;53.730;10.010;2022-08-19T04:42:45;46.93;;;21.27;;
20443;SDS011;10381;53.730;10.010;2022-08-19T04:46:46;47.63;;;17.47;;
20443;SDS011;10381;53.730;10.010;2022-08-19T04:50:47;38.95;;;17.55;;
20443;SDS011;10381;53.730;10.010;2022-08-19T04:54:48;42.03;;;18.20;;
20443;SDS011;10381;53.730;10.010;2022-08-19T04:58:49;37.10;;;17.88;;
20443;SDS011;10381;53.730;10.010;2022-08-19T05:02:51;46.65;;;20.00;;
20443;SDS011;10381;53.730;10.010;2022-08-19T05:06:51;52.20;;;18.20;;
20443;SDS011;10381;53.730;10.010;2022-08-19T05:10:53;41.33;;;17.73;;
20443;SDS011;10381;53.730;10.010;2022-08-19T05:14:53;38.57;;;18.50;;
20443;SDS011;10381;53.730;10.010;2022-08-19T05:18:54;39.60;;;18.63;;
20443;SDS011;10381;53.730;10.010;2022-08-19T05:23:14;55.72;;;21.05;;
20443;SDS011;10381;53.730;10.010;2022-08-19T05:27:15;44.00;;;18.33;;
20443;SDS011;10381;53.730;10.010;2022-08-19T05:31:15;47.30;;;21.67;;
20443;SDS011;10381;53.730;10.010;2022-08-19T05:35:16;58.03;;;19.43;;
20443;SDS011;10381;53.730;10.010;2022-08-19T05:39:20;60.97;;;21.40;;
20443;SDS011;10381;53.730;10.010;2022-08-19T05:43:21;51.10;;;20.92;;
20443;SDS011;10381;53.730;10.010;2022-08-19T05:47:21;53.72;;;20.50;;
20443;SDS011;10381;53.730;10.010;2022-08-19T05:51:22;59.47;;;21.42;;
20443;SDS011;10381;53.730;10.010;2022-08-19T05:55:23;57.30;;;21.48;;
20443;SDS011;10381;53.730;10.010;2022-08-19T05:59:24;55.45;;;21.20;;
20443;SDS011;10381;53.730;10.010;2022-08-19T06:03:24;50.97;;;21.30;;
20443;SDS011;10381;53.730;10.010;2022-08-19T06:07:24;60.13;;;21.25;;
20443;SDS011;10381;53.730;10.010;2022-08-19T06:15:36;54.38;;;20.20;;
20443;SDS011;10381;53.730;10.010;2022-08-19T06:19:36;55.13;;;19.90;;
20443;SDS011;10381;53.730;10.010;2022-08-19T06:23:37;47.25;;;19.88;;
20443;SDS011;10381;53.730;10.010;2022-08-19T06:27:39;53.28;;;20.45;;
20443;SDS011;10381;53.730;10.010;2022-08-19T06:31:44;50.05;;;18.80;;
20443;SDS011;10381;53.730;10.010;2022-08-19T06:35:49;47.47;;;19.88;;
20443;SDS011;10381;53.730;10.010;2022-08-19T06:39:49;44.93;;;19.87;;
20443;SDS011;10381;53.730;10.010;2022-08-19T06:43:50;53.25;;;19.52;;
20443;SDS011;10381;53.730;10.010;2022-08-19T06:47:51;48.90;;;18.75;;
20443;SDS011;10381;53.730;10.010;2022-08-19T06:51:55;53.10;;;19.60;;
20443;SDS011;10381;53.730;10.010;2022-08-19T06:55:57;53.95;;;17.60;;
20443;SDS011;10381;53.730;10.010;2022-08-19T07:00:00;48.88;;;16.90;;
20443;SDS011;10381;53.730;10.010;2022-08-19T07:04:01;36.90;;;16.77;;
20443;SDS011;10381;53.730;10.010;2022-08-19T07:08:02;42.35;;;18.58;;
20443;SDS011;10381;53.730;10.010;2022-08-19T07:12:03;39.13;;;19.52;;
20443;SDS011;10381;53.730;10.010;2022-08-19T07:16:05;55.17;;;19.23;;
20443;SDS011;10381;53.730;10.010;2022-08-19T07:20:09;38.15;;;17.38;;
20443;SDS011;10381;53.730;10.010;2022-08-19T07:24:10;50.28;;;20.02;;
20443;SDS011;10381;53.730;10.010;2022-08-19T07:28:12;46.20;;;18.98;;
20443;SDS011;10381;53.730;10.010;2022-08-19T07:32:12;61.13;;;19.55;;
20443;SDS011;10381;53.730;10.010;2022-08-19T07:36:13;45.67;;;20.48;;
20443;SDS011;10381;53.730;10.010;2022-08-19T07:40:15;44.20;;;20.00;;
20443;SDS011;10381;53.730;10.010;2022-08-19T07:44:16;46.75;;;19.05;;
20443;SDS011;10381;53.730;10.010;2022-08-19T07:48:18;47.85;;;18.50;;
20443;SDS011;10381;53.730;10.010;2022-08-19T07:52:18;42.40;;;17.67;;
20443;SDS011;10381;53.730;10.010;2022-08-19T07:56:20;36.17;;;17.85;;
20443;SDS011;10381;53.730;10.010;2022-08-19T08:00:21;44.95;;;19.25;;
20443;SDS011;10381;53.730;10.010;2022-08-19T08:04:21;44.38;;;17.60;;
20443;SDS011;10381;53.730;10.010;2022-08-19T08:08:40;51.78;;;19.08;;
20443;SDS011;10381;53.730;10.010;2022-08-19T08:12:59;37.83;;;16.00;;
20443;SDS011;10381;53.730;10.010;2022-08-19T08:16:59;39.75;;;18.33;;
20443;SDS011;10381;53.730;10.010;2022-08-19T08:21:00;37.60;;;16.67;;
20443;SDS011;10381;53.730;10.010;2022-08-19T08:25:04;43.35;;;17.40;;
20443;SDS011;10381;53.730;10.010;2022-08-19T08:29:06;41.13;;;16.90;;
20443;SDS011;10381;53.730;10.010;2022-08-19T08:33:10;43.33;;;18.58;;
20443;SDS011;10381;53.730;10.010;2022-08-19T08:37:10;42.57;;;16.83;;
20443;SDS011;10381;53.730;10.010;2022-08-19T08:41:13;37.13;;;17.00;;
20443;SDS011;10381;53.730;10.010;2022-08-19T08:45:19;43.08;;;16.67;;
20443;SDS011;10381;53.730;10.010;2022-08-19T08:49:34;39.63;;;17.20;;
20443;SDS011;10381;53.730;10.010;2022-08-19T08:54:02;28.23;;;15.77;;
20443;SDS011;10381;53.730;10.010;2022-08-19T08:58:09;44.15;;;16.80;;
20443;SDS011;10381;53.730;10.010;2022-08-19T09:02:16;33.13;;;15.55;;
20443;SDS011;10381;53.730;10.010;2022-08-19T09:06:26;42.42;;;16.90;;
20443;SDS011;10381;53.730;10.010;2022-08-19T09:10:37;34.28;;;16.42;;
20443;SDS011;10381;53.730;10.010;2022-08-19T09:18:51;33.45;;;16.00;;
20443;SDS011;10381;53.730;10.010;2022-08-19T09:22:53;40.05;;;17.45;;
20443;SDS011;10381;53.730;10.010;2022-08-19T09:26:53;33.97;;;16.92;;
20443;SDS011;10381;53.730;10.010;2022-08-19T09:30:54;30.33;;;15.48;;
20443;SDS011;10381;53.730;10.010;2022-08-19T09:34:54;28.85;;;15.43;;
20443;SDS011;10381;53.730;10.010;2022-08-19T09:38:55;26.23;;;14.53;;
20443;SDS011;10381;53.730;10.010;2022-08-19T09:42:56;33.95;;;15.02;;
20443;SDS011;10381;53.730;10.010;2022-08-19T09:46:57;34.45;;;16.77;;
20443;SDS011;10381;53.730;10.010;2022-08-19T09:51:13;31.30;;;16.30;;
20443;SDS011;10381;53.730;10.010;2022-08-19T09:55:17;31.67;;;15.77;;
20443;SDS011;10381;53.730;10.010;2022-08-19T09:59:17;29.50;;;16.25;;
20443;SDS011;10381;53.730;10.010;2022-08-19T10:03:17;27.60;;;14.02;;
20443;SDS011;10381;53.730;10.010;2022-08-19T10:07:18;32.13;;;15.73;;
20443;SDS011;10381;53.730;10.010;2022-08-19T10:11:19;24.37;;;13.90;;
20443;SDS011;10381;53.730;10.010;2022-08-19T10:15:20;31.38;;;15.30;;
20443;SDS011;10381;53.730;10.010;2022-08-19T10:19:21;26.55;;;14.70;;
20443;SDS011;10381;53.730;10.010;2022-08-19T10:23:21;29.38;;;15.52;;
20443;SDS011;10381;53.730;10.010;2022-08-19T10:27:21;27.50;;;14.73;;
20443;SDS011;10381;53.730;10.010;2022-08-19T10:31:23;29.43;;;14.17;;
20443;SDS011;10381;53.730;10.010;2022-08-19T10:35:25;28.15;;;14.23;;
20443;SDS011;10381;53.730;10.010;2022-08-19T10:39:30;24.98;;;13.85;;
20443;SDS011;10381;53.730;10.010;2022-08-19T10:43:32;26.08;;;14.82;;
20443;SDS011;10381;53.730;10.010;2022-08-19T10:47:34;30.50;;;14.82;;
20443;SDS011;10381;53.730;10.010;2022-08-19T10:51:34;33.33;;;15.40;;
20443;SDS011;10381;53.730;10.010;2022-08-19T10:55:54;24.52;;;13.68;;
20443;SDS011;10381;53.730;10.010;2022-08-19T11:00:13;24.45;;;14.90;;
20443;SDS011;10381;53.730;10.010;2022-08-19T11:04:14;24.95;;;15.00;;
20443;SDS011;10381;53.730;10.010;2022-08-19T11:08:17;24.98;;;14.15;;
20443;SDS011;10381;53.730;10.010;2022-08-19T11:12:17;23.23;;;13.83;;
20443;SDS011;10381;53.730;10.010;2022-08-19T11:16:20;28.23;;;12.10;;
20443;SDS011;10381;53.730;10.010;2022-08-19T11:20:23;26.63;;;12.43;;
20443;SDS011;10381;53.730;10.010;2022-08-19T11:24:24;25.88;;;12.73;;
20443;SDS011;10381;53.730;10.010;2022-08-19T11:28:25;22.15;;;12.90;;
20443;SDS011;10381;53.730;10.010;2022-08-19T11:32:26;23.40;;;12.23;;
20443;SDS011;10381;53.730;10.010;2022-08-19T11:36:27;20.20;;;12.25;;
20443;SDS011;10381;53.730;10.010;2022-08-19T11:40:28;22.45;;;12.63;;
20443;SDS011;10381;53.730;10.010;2022-08-19T11:44:28;19.08;;;12.02;;
20443;SDS011;10381;53.730;10.010;2022-08-19T11:48:30;24.02;;;12.18;;
20443;SDS011;10381;53.730;10.010;2022-08-19T11:52:30;19.05;;;12.10;;
20443;SDS011;10381;53.730;10.010;2022-08-19T11:56:31;19.88;;;12.45;;
20443;SDS011;10381;53.730;10.010;2022-08-19T12:00:32;19.70;;;13.05;;
20443;SDS011;10381;53.730;10.010;2022-08-19T12:04:35;19.35;;;12.10;;
20443;SDS011;10381;53.730;10.010;2022-08-19T12:08:35;26.87;;;14.30;;
20443;SDS011;10381;53.730;10.010;2022-08-19T12:12:36;24.27;;;13.95;;
20443;SDS011;10381;53.730;10.010;2022-08-19T12:16:37;21.80;;;13.23;;
20443;SDS011;10381;53.730;10.010;2022-08-19T12:20:38;29.33;;;11.97;;
20443;SDS011;10381;53.730;10.010;2022-08-19T12:24:40;23.83;;;13.10;;
20443;SDS011;10381;53.730;10.010;2022-08-19T12:28:40;25.50;;;11.90;;
20443;SDS011;10381;53.730;10.010;2022-08-19T12:32:41;19.58;;;12.77;;
20443;SDS011;10381;53.730;10.010;2022-08-19T12:36:41;22.10;;;12.93;;
20443;SDS011;10381;53.730;10.010;2022-08-19T12:40:45;28.77;;;13.87;;
20443;SDS011;10381;53.730;10.010;2022-08-19T12:44:46;23.33;;;13.80;;
20443;SDS011;10381;53.730;10.010;2022-08-19T12:48:47;22.38;;;13.13;;
20443;SDS011;10381;53.730;10.010;2022-08-19T12:52:47;17.83;;;11.18;;
20443;SDS011;10381;53.730;10.010;2022-08-19T12:56:48;21.60;;;10.75;;
20443;SDS011;10381;53.730;10.010;2022-08-19T13:00:48;20.03;;;10.43;;
20443;SDS011;10381;53.730;10.010;2022-08-19T13:04:48;14.90;;;9.85;;
20443;SDS011;10381;53.730;10.010;2022-08-19T13:08:49;15.90;;;9.87;;
20443;SDS011;10381;53.730;10.010;2022-08-19T13:12:50;16.45;;;10.90;;
20443;SDS011;10381;53.730;10.010;2022-08-19T13:16:51;16.38;;;10.88;;
20443;SDS011;10381;53.730;10.010;2022-08-19T13:20:51;19.00;;;11.77;;
20443;SDS011;10381;53.730;10.010;2022-08-19T13:24:52;19.92;;;12.60;;
20443;SDS011;10381;53.730;10.010;2022-08-19T13:28:53;17.57;;;11.73;;
20443;SDS011;10381;53.730;10.010;2022-08-19T13:33:12;19.95;;;12.82;;
20443;SDS011;10381;53.730;10.010;2022-08-19T13:37:15;20.23;;;12.32;;
20443;SDS011;10381;53.730;10.010;2022-08-19T13:41:16;18.77;;;11.47;;
20443;SDS011;10381;53.730;10.010;2022-08-19T13:45:20;18.48;;;12.02;;
20443;SDS011;10381;53.730;10.010;2022-08-19T13:49:24;17.88;;;12.20;;
20443;SDS011;10381;53.730;10.010;2022-08-19T13:53:24;15.07;;;10.97;;
20443;SDS011;10381;53.730;10.010;2022-08-19T13:57:24;17.02;;;10.95;;
20443;SDS011;10381;53.730;10.010;2022-08-19T14:01:25;19.20;;;11.57;;
20443;SDS011;10381;53.730;10.010;2022-08-19T14:05:27;14.90;;;11.13;;
20443;SDS011;10381;53.730;10.010;2022-08-19T14:09:29;18.88;;;11.93;;
20443;SDS011;10381;53.730;10.010;2022-08-19T14:13:29;17.63;;;11.38;;
20443;SDS011;10381;53.730;10.010;2022-08-19T14:17:30;23.77;;;11.05;;
20443;SDS011;10381;53.730;10.010;2022-08-19T14:21:31;18.63;;;11.05;;
20443;SDS011;10381;53.730;10.010;2022-08-19T14:25:31;19.17;;;11.68;;
20443;SDS011;10381;53.730;10.010;2022-08-19T14:29:33;18.23;;;11.25;;
20443;SDS011;10381;53.730;10.010;2022-08-19T14:33:34;23.27;;;12.68;;
20443;SDS011;10381;53.730;10.010;2022-08-19T14:37:34;21.60;;;11.87;;
20443;SDS011;10381;53.730;10.010;2022-08-19T14:41:35;19.52;;;12.00;;
20443;SDS011;10381;53.730;10.010;2022-08-19T14:45:36;17.48;;;11.80;;
20443;SDS011;10381;53.730;10.010;2022-08-19T14:49:38;18.30;;;12.50;;
20443;SDS011;10381;53.730;10.010;2022-08-19T14:53:39;25.08;;;12.07;;
20443;SDS011;10381;53.730;10.010;2022-08-19T14:57:41;17.35;;;11.30;;
20443;SDS011;10381;53.730;10.010;2022-08-19T15:01:42;18.48;;;11.93;;
20443;SDS011;10381;53.730;10.010;2022-08-19T15:05:43;20.20;;;12.55;;
20443;SDS011;10381;53.730;10.010;2022-08-19T15:09:44;21.90;;;12.23;;
20443;SDS011;10381;53.730;10.010;2022-08-19T15:13:44;19.30;;;12.60;;
20443;SDS011;10381;53.730;10.010;2022-08-19T15:17:46;19.00;;;12.27;;
20443;SDS011;10381;53.730;10.010;2022-08-19T15:21:46;19.43;;;11.77;;
20443;SDS011;10381;53.730;10.010;2022-08-19T15:25:47;18.90;;;10.83;;
20443;SDS011;10381;53.730;10.010;2022-08-19T15:29:48;24.95;;;11.80;;
20443;SDS011;10381;53.730;10.010;2022-08-19T15:33:48;17.75;;;9.70;;
20443;SDS011;10381;53.730;10.010;2022-08-19T15:37:49;17.55;;;11.48;;
20443;SDS011;10381;53.730;10.010;2022-08-19T15:41:51;21.27;;;12.38;;
20443;SDS011;10381;53.730;10.010;2022-08-19T15:45:52;17.55;;;11.95;;
20443;SDS011;10381;53.730;10.010;2022-08-19T15:49:52;17.40;;;12.10;;
20443;SDS011;10381;53.730;10.010;2022-08-19T15:53:52;16.50;;;12.30;;
20443;SDS011;10381;53.730;10.010;2022-08-19T15:57:54;15.63;;;11.75;;
20443;SDS011;10381;53.730;10.010;2022-08-19T16:02:13;20.33;;;11.77;;
20443;SDS011;10381;53.730;10.010;2022-08-19T16:06:34;17.27;;;11.50;;
20443;SDS011;10381;53.730;10.010;2022-08-19T16:10:35;17.02;;;11.95;;
20443;SDS011;10381;53.730;10.010;2022-08-19T16:14:37;22.27;;;13.13;;
20443;SDS011;10381;53.730;10.010;2022-08-19T16:18:38;18.90;;;12.40;;
20443;SDS011;10381;53.730;10.010;2022-08-19T16:22:38;22.57;;;13.23;;
20443;SDS011;10381;53.730;10.010;2022-08-19T16:26:39;21.55;;;12.93;;
20443;SDS011;10381;53.730;10.010;2022-08-19T16:30:41;24.80;;;13.30;;
20443;SDS011;10381;53.730;10.010;2022-08-19T16:34:42;23.20;;;13.40;;
20443;SDS011;10381;53.730;10.010;2022-08-19T16:38:42;23.08;;;13.35;;
20443;SDS011;10381;53.730;10.010;2022-08-19T16:42:47;21.10;;;13.30;;
20443;SDS011;10381;53.730;10.010;2022-08-19T16:46:47;24.80;;;14.73;;
20443;SDS011;10381;53.730;10.010;2022-08-19T16:50:48;16.65;;;11.77;;
20443;SDS011;10381;53.730;10.010;2022-08-19T16:54:49;14.77;;;11.10;;
20443;SDS011;10381;53.730;10.010;2022-08-19T16:58:49;21.00;;;12.50;;
20443;SDS011;10381;53.730;10.010;2022-08-19T17:02:50;23.20;;;13.00;;
20443;SDS011;10381;53.730;10.010;2022-08-19T17:06:50;22.17;;;14.03;;
20443;SDS011;10381;53.730;10.010;2022-08-19T17:10:51;20.73;;;13.93;;
20443;SDS011;10381;53.730;10.010;2022-08-19T17:14:53;19.88;;;14.07;;
20443;SDS011;10381;53.730;10.010;2022-08-19T17:18:55;22.75;;;13.38;;
20443;SDS011;10381;53.730;10.010;2022-08-19T17:22:57;22.65;;;14.57;;
20443;SDS011;10381;53.730;10.010;2022-08-19T17:26:58;30.20;;;16.10;;
20443;SDS011;10381;53.730;10.010;2022-08-19T17:30:58;20.00;;;13.73;;
20443;SDS011;10381;53.730;10.010;2022-08-19T17:34:58;22.90;;;15.00;;
20443;SDS011;10381;53.730;10.010;2022-08-19T17:39:00;22.58;;;14.13;;
20443;SDS011;10381;53.730;10.010;2022-08-19T17:43:01;25.50;;;14.88;;
20443;SDS011;10381;53.730;10.010;2022-08-19T17:47:02;19.95;;;13.60;;
20443;SDS011;10381;53.730;10.010;2022-08-19T17:51:13;22.75;;;13.35;;
20443;SDS011;10381;53.730;10.010;2022-08-19T17:55:19;25.60;;;14.52;;
20443;SDS011;10381;53.730;10.010;2022-08-19T17:59:19;23.05;;;14.07;;
20443;SDS011;10381;53.730;10.010;2022-08-19T18:03:19;20.73;;;13.43;;
20443;SDS011;10381;53.730;10.010;2022-08-19T18:07:20;22.50;;;13.83;;
20443;SDS011;10381;53.730;10.010;2022-08-19T18:11:20;20.40;;;13.70;;
20443;SDS011;10381;53.730;10.010;2022-08-19T18:15:21;22.50;;;14.32;;
20443;SDS011;10381;53.730;10.010;2022-08-19T18:19:23;24.00;;;15.27;;
20443;SDS011;10381;53.730;10.010;2022-08-19T18:23:24;28.90;;;16.15;;
20443;SDS011;10381;53.730;10.010;2022-08-19T18:27:25;23.23;;;14.73;;
20443;SDS011;10381;53.730;10.010;2022-08-19T18:31:26;24.38;;;15.05;;
20443;SDS011;10381;53.730;10.010;2022-08-19T18:35:28;25.05;;;15.57;;
20443;SDS011;10381;53.730;10.010;2022-08-19T18:39:30;25.10;;;16.00;;
20443;SDS011;10381;53.730;10.010;2022-08-19T18:43:49;26.63;;;15.93;;
20443;SDS011;10381;53.730;10.010;2022-08-19T18:48:08;27.90;;;15.93;;
20443;SDS011;10381;53.730;10.010;2022-08-19T18:52:27;27.17;;;16.95;;
20443;SDS011;10381;53.730;10.010;2022-08-19T18:56:28;26.80;;;17.03;;
20443;SDS011;10381;53.730;10.010;2022-08-19T19:00:31;31.23;;;18.55;;
20443;SDS011;10381;53.730;10.010;2022-08-19T19:04:31;30.17;;;19.05;;
20443;SDS011;10381;53.730;10.010;2022-08-19T19:08:36;34.92;;;20.10;;
20443;SDS011;10381;53.730;10.010;2022-08-19T19:12:39;37.08;;;21.13;;
20443;SDS011;10381;53.730;10.010;2022-08-19T19:16:43;34.92;;;21.48;;
20443;SDS011;10381;53.730;10.010;2022-08-19T19:20:46;30.40;;;21.02;;
20443;SDS011;10381;53.730;10.010;2022-08-19T19:24:47;40.05;;;21.98;;
20443;SDS011;10381;53.730;10.010;2022-08-19T19:28:48;37.75;;;21.27;;
20443;SDS011;10381;53.730;10.010;2022-08-19T19:32:50;37.72;;;21.50;;
20443;SDS011;10381;53.730;10.010;2022-08-19T19:36:51;33.92;;;23.05;;
20443;SDS011;10381;53.730;10.010;2022-08-19T19:40:51;39.15;;;22.10;;
20443;SDS011;10381;53.730;10.010;2022-08-19T19:44:54;34.63;;;22.05;;
20443;SDS011;10381;53.730;10.010;2022-08-19T19:48:55;38.70;;;22.02;;
20443;SDS011;10381;53.730;10.010;2022-08-19T19:52:56;36.35;;;22.20;;
20443;SDS011;10381;53.730;10.010;2022-08-19T19:56:57;37.38;;;22.08;;
20443;SDS011;10381;53.730;10.010;2022-08-19T20:00:57;38.60;;;21.88;;
20443;SDS011;10381;53.730;10.010;2022-08-19T20:04:58;41.35;;;23.17;;
20443;SDS011;10381;53.730;10.010;2022-08-19T20:08:58;44.47;;;24.08;;
20443;SDS011;10381;53.730;10.010;2022-08-19T20:13:09;38.70;;;22.00;;
20443;SDS011;10381;53.730;10.010;2022-08-19T20:17:11;47.70;;;21.83;;
20443;SDS011;10381;53.730;10.010;2022-08-19T20:21:12;33.80;;;19.53;;
20443;SDS011;10381;53.730;10.010;2022-08-19T20:25:13;32.70;;;20.58;;
20443;SDS011;10381;53.730;10.010;2022-08-19T20:29:16;42.13;;;22.10;;
20443;SDS011;10381;53.730;10.010;2022-08-19T20:33:18;43.17;;;22.92;;
20443;SDS011;10381;53.730;10.010;2022-08-19T20:37:18;38.08;;;21.23;;
20443;SDS011;10381;53.730;10.010;2022-08-19T20:41:18;37.17;;;22.17;;
20443;SDS011;10381;53.730;10.010;2022-08-19T20:45:20;35.60;;;20.25;;
20443;SDS011;10381;53.730;10.010;2022-08-19T20:49:22;43.67;;;21.13;;
20443;SDS011;10381;53.730;10.010;2022-08-19T20:53:24;40.92;;;19.17;;
20443;SDS011;10381;53.730;10.010;2022-08-19T20:57:26;41.15;;;19.25;;
20443;SDS011;10381;53.730;10.010;2022-08-19T21:01:26;38.60;;;20.10;;
20443;SDS011;10381;53.730;10.010;2022-08-19T21:05:26;39.00;;;20.48;;
20443;SDS011;10381;53.730;10.010;2022-08-19T21:09:27;37.10;;;17.67;;
20443;SDS011;10381;53.730;10.010;2022-08-19T21:13:27;32.70;;;19.60;;
20443;SDS011;10381;53.730;10.010;2022-08-19T21:17:28;35.40;;;18.13;;
20443;SDS011;10381;53.730;10.010;2022-08-19T21:21:28;42.67;;;19.13;;
20443;SDS011;10381;53.730;10.010;2022-08-19T21:25:29;31.50;;;18.20;;
20443;SDS011;10381;53.730;10.010;2022-08-19T21:29:29;34.63;;;18.83;;
20443;SDS011;10381;53.730;10.010;2022-08-19T21:33:31;44.28;;;20.75;;
20443;SDS011;10381;53.730;10.010;2022-08-19T21:37:31;38.72;;;20.58;;
20443;SDS011;10381;53.730;10.010;2022-08-19T21:41:33;37.83;;;18.90;;
20443;SDS011;10381;53.730;10.010;2022-08-19T21:45:34;38.03;;;18.13;;
20443;SDS011;10381;53.730;10.010;2022-08-19T21:49:34;44.03;;;19.25;;
20443;SDS011;10381;53.730;10.010;2022-08-19T21:53:35;42.30;;;19.45;;
20443;SDS011;10381;53.730;10.010;2022-08-19T21:57:36;42.08;;;19.73;;
20443;SDS011;10381;53.730;10.010;2022-08-19T22:01:36;37.03;;;18.67;;
20443;SDS011;10381;53.730;10.010;2022-08-19T22:05:36;68.80;;;33.75;;
20443;SDS011;10381;53.730;10.010;2022-08-19T22:09:37;42.95;;;20.92;;
20443;SDS011;10381;53.730;10.010;2022-08-19T22:13:37;42.13;;;18.27;;
20443;SDS011;10381;53.730;10.010;2022-08-19T22:17:37;42.97;;;19.60;;
20443;SDS011;10381;53.730;10.010;2022-08-19T22:21:39;44.47;;;20.52;;
20443;SDS011;10381;53.730;10.010;2022-08-19T22:25:40;44.78;;;18.58;;
20443;SDS011;10381;53.730;10.010;2022-08-19T22:29:43;37.28;;;17.67;;
20443;SDS011;10381;53.730;10.010;2022-08-19T22:33:43;49.00;;;20.27;;
20443;SDS011;10381;53.730;10.010;2022-08-19T22:37:44;48.25;;;22.45;;
20443;SDS011;10381;53.730;10.010;2022-08-19T22:41:44;53.22;;;22.95;;
20443;SDS011;10381;53.730;10.010;2022-08-19T22:45:45;59.13;;;23.53;;
20443;SDS011;10381;53.730;10.010;2022-08-19T22:49:46;56.63;;;23.38;;
20443;SDS011;10381;53.730;10.010;2022-08-19T22:53:47;57.50;;;23.63;;
20443;SDS011;10381;53.730;10.010;2022-08-19T22:57:47;49.97;;;22.37;;
20443;SDS011;10381;53.730;10.010;2022-08-19T23:01:47;57.80;;;21.83;;
20443;SDS011;10381;53.730;10.010;2022-08-19T23:05:48;35.88;;;18.55;;
20443;SDS011;10381;53.730;10.010;2022-08-19T23:09:48;39.67;;;20.10;;
20443;SDS011;10381;53.730;10.010;2022-08-19T23:13:48;52.20;;;23.07;;
20443;SDS011;10381;53.730;10.010;2022-08-19T23:17:49;46.57;;;21.37;;
20443;SDS011;10381;53.730;10.010;2022-08-19T23:21:50;57.22;;;21.67;;